createdAt,value
2018-03-18T00:00:43.963Z,1.67
2018-03-18T00:03:12.406Z,1.63
2018-03-18T00:05:40.469Z,1.40
2018-03-18T00:08:08.140Z,1.50
2018-03-18T00:10:35.999Z,1.63
2018-03-18T00:13:04.364Z,1.50
2018-03-18T00:15:32.764Z,1.70
2018-03-18T00:18:00.385Z,1.50
2018-03-18T00:20:28.006Z,1.60
2018-03-18T00:22:55.625Z,1.67
2018-03-18T00:25:24.782Z,1.80
2018-03-18T00:27:53.145Z,1.70
2018-03-18T00:30:20.765Z,1.40
2018-03-18T00:32:48.395Z,1.50
2018-03-18T00:35:16.777Z,1.83
2018-03-18T00:37:45.169Z,1.60
2018-03-18T00:40:12.784Z,1.70
2018-03-18T00:42:40.538Z,1.50
2018-03-18T00:45:08.194Z,1.60
2018-03-18T00:47:35.882Z,1.60
2018-03-18T00:50:03.534Z,1.60
2018-03-18T00:52:31.142Z,1.33
2018-03-18T00:54:58.817Z,1.50
2018-03-18T00:57:26.439Z,1.60
2018-03-18T00:59:55.573Z,1.50
2018-03-18T01:02:23.194Z,1.50
2018-03-18T01:04:51.555Z,1.27
2018-03-18T01:07:19.719Z,1.40
2018-03-18T01:09:47.310Z,1.53
2018-03-18T01:12:15.679Z,1.60
2018-03-18T01:14:44.103Z,1.60
2018-03-18T01:17:11.781Z,1.20
2018-03-18T01:19:39.382Z,1.40
2018-03-18T01:22:07.783Z,1.43
2018-03-18T01:24:35.406Z,1.33
2018-03-18T01:27:03.017Z,1.30
2018-03-18T01:29:31.089Z,1.50
2018-03-18T01:31:59.493Z,1.50
2018-03-18T01:34:27.095Z,1.70
2018-03-18T01:36:56.226Z,1.60
2018-03-18T01:39:23.837Z,1.70
2018-03-18T01:41:51.477Z,1.43
2018-03-18T01:44:19.134Z,1.47
2018-03-18T01:46:46.786Z,1.17
2018-03-18T01:49:16.645Z,1.23
2018-03-18T01:51:44.671Z,1.50
2018-03-18T01:54:12.316Z,1.70
2018-03-18T01:56:39.927Z,1.20
2018-03-18T01:59:07.913Z,1.30
2018-03-18T02:01:35.906Z,1.43
2018-03-18T02:04:03.968Z,1.40
2018-03-18T02:06:32.348Z,1.73
2018-03-18T02:09:00.352Z,1.60
2018-03-18T02:11:28.006Z,1.33
2018-03-18T02:13:56.399Z,1.53
2018-03-18T02:16:25.388Z,1.47
2018-03-18T02:18:53.004Z,1.23
2018-03-18T02:21:21.543Z,1.63
2018-03-18T02:23:49.162Z,1.33
2018-03-18T02:26:16.762Z,1.77
2018-03-18T02:28:45.038Z,1.33
2018-03-18T02:31:12.668Z,1.50
2018-03-18T02:33:40.284Z,1.40
2018-03-18T02:36:09.473Z,1.37
2018-03-18T02:38:38.758Z,1.47
2018-03-18T02:41:06.390Z,1.80
2018-03-18T02:43:34.079Z,1.63
2018-03-18T02:46:01.727Z,1.50
2018-03-18T02:48:29.383Z,1.60
2018-03-18T02:50:57.006Z,1.20
2018-03-18T02:53:25.444Z,1.30
2018-03-18T02:55:53.080Z,1.47
2018-03-18T02:58:21.459Z,1.40
2018-03-18T03:00:49.122Z,1.67
2018-03-18T03:03:17.524Z,1.47
2018-03-18T03:05:45.114Z,1.27
2018-03-18T03:08:13.534Z,1.60
2018-03-18T03:10:41.532Z,1.60
2018-03-18T03:13:10.496Z,1.50
2018-03-18T03:15:38.117Z,1.30
2018-03-18T03:18:06.496Z,1.70
2018-03-18T03:20:34.122Z,1.50
2018-03-18T03:23:01.714Z,1.50
2018-03-18T03:25:29.343Z,1.40
2018-03-18T03:27:57.705Z,1.37
2018-03-18T03:30:26.722Z,1.43
2018-03-18T03:32:54.403Z,1.50
2018-03-18T03:35:22.738Z,1.47
2018-03-18T03:37:51.843Z,1.40
2018-03-18T03:40:20.816Z,1.37
2018-03-18T03:42:48.433Z,1.53
2018-03-18T03:45:17.090Z,1.40
2018-03-18T03:47:44.762Z,1.57
2018-03-18T03:50:13.070Z,1.40
2018-03-18T03:52:41.828Z,1.50
2018-03-18T03:55:09.492Z,1.40
2018-03-18T03:57:37.087Z,1.33
2018-03-18T04:00:05.903Z,1.60
2018-03-18T04:02:34.275Z,1.63
2018-03-18T04:05:02.270Z,1.50
2018-03-18T04:07:31.240Z,1.23
2018-03-18T04:09:58.835Z,1.40
2018-03-18T04:12:26.454Z,1.50
2018-03-18T04:14:54.900Z,1.60
2018-03-18T04:17:22.571Z,1.20
2018-03-18T04:19:50.180Z,1.20
2018-03-18T04:22:17.841Z,1.30
2018-03-18T04:24:45.464Z,1.33
2018-03-18T04:27:13.892Z,1.50
2018-03-18T04:29:43.349Z,1.50
2018-03-18T04:32:12.468Z,1.70
2018-03-18T04:34:40.115Z,1.50
2018-03-18T04:37:08.502Z,1.50
2018-03-18T04:39:36.925Z,1.33
2018-03-18T04:42:04.528Z,1.47
2018-03-18T04:44:32.591Z,1.47
2018-03-18T04:47:01.544Z,1.40
2018-03-18T04:49:29.800Z,1.20
2018-03-18T04:51:57.491Z,1.33
2018-03-18T04:54:25.866Z,1.47
2018-03-18T04:56:53.769Z,1.60
2018-03-18T04:59:22.502Z,1.27
2018-03-18T05:01:50.167Z,1.40
2018-03-18T05:04:17.776Z,1.50
2018-03-18T05:06:45.384Z,1.50
2018-03-18T05:09:13.006Z,1.50
2018-03-18T05:11:43.112Z,1.60
2018-03-18T05:14:12.098Z,1.67
2018-03-18T05:16:39.738Z,1.50
2018-03-18T05:19:07.338Z,1.40
2018-03-18T05:21:35.760Z,1.60
2018-03-18T05:24:03.383Z,1.50
2018-03-18T05:26:31.838Z,1.50
2018-03-18T05:28:59.692Z,1.77
2018-03-18T05:31:27.327Z,1.87
2018-03-18T05:33:54.965Z,1.50
2018-03-18T05:36:23.358Z,1.43
2018-03-18T05:38:51.016Z,1.43
2018-03-18T05:41:18.620Z,1.50
2018-03-18T05:43:46.266Z,1.30
2018-03-18T05:46:13.909Z,1.43
2018-03-18T05:48:42.867Z,1.37
2018-03-18T05:51:11.267Z,1.40
2018-03-18T05:53:38.858Z,1.50
2018-03-18T05:56:06.510Z,1.53
2018-03-18T05:58:34.900Z,1.60
2018-03-18T06:01:02.542Z,1.40
2018-03-18T06:03:30.918Z,1.33
2018-03-18T06:05:59.616Z,1.70
2018-03-18T06:08:27.310Z,1.47
2018-03-18T06:10:54.924Z,1.53
2018-03-18T06:13:22.551Z,1.50
2018-03-18T06:15:50.159Z,1.50
2018-03-18T06:18:17.833Z,1.47
2018-03-18T06:20:45.518Z,1.77
2018-03-18T06:23:13.132Z,1.37
2018-03-18T06:25:40.768Z,1.57
2018-03-18T06:28:09.126Z,1.40
2018-03-18T06:30:36.774Z,1.73
2018-03-18T06:33:04.777Z,1.40
2018-03-18T06:35:33.156Z,1.50
2018-03-18T06:38:02.318Z,1.40
2018-03-18T06:40:29.960Z,1.50
2018-03-18T06:42:57.564Z,1.53
2018-03-18T06:45:25.238Z,1.40
2018-03-18T06:47:52.857Z,1.50
2018-03-18T06:50:20.473Z,1.30
2018-03-18T06:52:48.887Z,1.40
2018-03-18T06:55:17.635Z,1.40
2018-03-18T06:57:46.007Z,1.40
2018-03-18T07:00:14.435Z,1.30
2018-03-18T07:02:42.036Z,1.40
2018-03-18T07:05:09.680Z,1.37
2018-03-18T07:07:37.358Z,1.33
2018-03-18T07:10:04.998Z,1.67
2018-03-18T07:12:32.608Z,1.77
2018-03-18T07:15:00.253Z,1.53
2018-03-18T07:17:28.637Z,1.60
2018-03-18T07:19:57.406Z,1.57
2018-03-18T07:22:25.103Z,1.23
2018-03-18T07:24:52.690Z,1.60
2018-03-18T07:27:20.358Z,1.60
2018-03-18T07:29:47.958Z,1.60
2018-03-18T07:32:16.924Z,1.60
2018-03-18T07:34:44.560Z,1.60
2018-03-18T07:37:12.960Z,1.50
2018-03-18T07:39:40.616Z,1.60
2018-03-18T07:42:08.265Z,1.70
2018-03-18T07:44:35.873Z,1.53
2018-03-18T07:47:04.115Z,1.70
2018-03-18T07:49:31.746Z,1.50
2018-03-18T07:51:59.333Z,1.27
2018-03-18T07:54:26.967Z,1.47
2018-03-18T07:56:54.605Z,1.50
2018-03-18T07:59:23.017Z,1.40
2018-03-18T08:01:50.629Z,1.40
2018-03-18T08:04:18.952Z,1.50
2018-03-18T08:06:47.362Z,1.53
2018-03-18T08:09:15.120Z,1.50
2018-03-18T08:11:43.855Z,2.27
2018-03-18T08:14:12.376Z,2.77
2018-03-18T08:16:40.715Z,2.43
2018-03-18T08:19:09.349Z,2.93
2018-03-18T08:21:38.346Z,2.97
2018-03-18T08:24:05.989Z,3.00
2018-03-18T08:26:33.603Z,2.73
2018-03-18T08:29:02.541Z,2.73
2018-03-18T08:31:30.176Z,2.93
2018-03-18T08:33:59.238Z,2.57
2018-03-18T08:36:28.000Z,3.00
2018-03-18T08:38:56.946Z,2.80
2018-03-18T08:41:24.640Z,2.40
2018-03-18T08:43:52.250Z,2.83
2018-03-18T08:46:20.391Z,2.53
2018-03-18T08:48:48.033Z,2.90
2018-03-18T08:51:17.006Z,2.80
2018-03-18T08:53:44.641Z,3.10
2018-03-18T08:56:12.243Z,2.47
2018-03-18T08:58:39.875Z,2.67
2018-03-18T09:01:08.257Z,2.40
2018-03-18T09:03:36.645Z,2.90
2018-03-18T09:06:06.100Z,2.80
2018-03-18T09:08:33.732Z,2.97
2018-03-18T09:11:01.375Z,2.97
2018-03-18T09:13:29.008Z,3.27
2018-03-18T09:15:57.026Z,3.10
2018-03-18T09:18:24.725Z,2.90
2018-03-18T09:20:52.372Z,3.00
2018-03-18T09:23:20.028Z,2.73
2018-03-18T09:25:48.968Z,2.87
2018-03-18T09:28:17.346Z,3.23
2018-03-18T09:30:45.738Z,3.20
2018-03-18T09:33:14.140Z,3.10
2018-03-18T09:35:42.161Z,2.90
2018-03-18T09:38:10.585Z,3.47
2018-03-18T09:40:38.181Z,3.20
2018-03-18T09:43:07.328Z,3.00
2018-03-18T09:45:34.913Z,3.20
2018-03-18T09:48:03.332Z,3.53
2018-03-18T09:50:33.016Z,2.97
2018-03-18T09:53:00.624Z,3.10
2018-03-18T09:55:29.020Z,3.37
2018-03-18T09:57:56.648Z,2.70
2018-03-18T10:00:24.270Z,3.17
2018-03-18T10:02:51.907Z,3.23
2018-03-18T10:05:19.535Z,2.40
2018-03-18T10:07:47.247Z,2.93
2018-03-18T10:10:14.863Z,2.83
2018-03-18T10:12:43.669Z,2.97
2018-03-18T10:15:12.051Z,3.00
2018-03-18T10:17:40.437Z,3.03
2018-03-18T10:20:08.066Z,3.20
2018-03-18T10:22:37.157Z,3.53
2018-03-18T10:25:06.105Z,3.47
2018-03-18T10:27:34.471Z,3.33
2018-03-18T10:30:02.134Z,4.33
2018-03-18T10:32:30.176Z,4.13
2018-03-18T10:34:58.614Z,4.57
2018-03-18T10:37:26.209Z,4.03
2018-03-18T10:39:54.652Z,4.30
2018-03-18T10:42:22.255Z,3.97
2018-03-18T10:44:50.618Z,3.90
2018-03-18T10:47:19.755Z,4.27
2018-03-18T10:49:47.363Z,4.63
2018-03-18T10:52:15.013Z,4.10
2018-03-18T10:54:42.606Z,3.67
2018-03-18T10:57:11.018Z,3.90
2018-03-18T10:59:38.623Z,3.53
2018-03-18T11:05:08.283Z,4.00
2018-03-18T11:07:36.651Z,3.90
2018-03-18T11:10:05.093Z,3.50
2018-03-18T11:12:33.120Z,3.47
2018-03-18T11:15:01.516Z,3.63
2018-03-18T11:17:29.160Z,3.90
2018-03-18T11:19:57.573Z,3.60
2018-03-18T11:22:25.208Z,3.50
2018-03-18T11:24:53.985Z,3.50
2018-03-18T11:27:22.367Z,3.43
2018-03-18T11:29:50.771Z,3.30
2018-03-18T11:32:18.389Z,3.27
2018-03-18T11:34:46.018Z,3.37
2018-03-18T11:37:13.691Z,3.53
2018-03-18T11:39:41.309Z,4.43
2018-03-18T11:42:08.921Z,3.63
2018-03-18T11:44:36.684Z,2.97
2018-03-18T11:47:05.799Z,3.33
2018-03-18T11:49:33.558Z,3.10
2018-03-18T11:52:01.183Z,3.40
2018-03-18T11:54:28.846Z,2.87
2018-03-18T11:56:56.479Z,3.17
2018-03-18T11:59:24.138Z,2.60
2018-03-18T12:01:51.976Z,2.70
2018-03-18T12:04:19.578Z,2.90
2018-03-18T12:06:47.608Z,2.90
2018-03-18T12:09:15.987Z,3.23
2018-03-18T12:11:44.761Z,2.90
2018-03-18T12:14:12.360Z,3.10
2018-03-18T12:16:40.033Z,2.43
2018-03-18T12:19:08.284Z,2.80
2018-03-18T12:21:36.660Z,3.43
2018-03-18T12:24:05.082Z,3.10
2018-03-18T12:26:32.757Z,2.80
2018-03-18T12:29:00.391Z,2.60
2018-03-18T12:31:27.991Z,2.70
2018-03-18T12:33:55.699Z,2.90
2018-03-18T12:36:23.591Z,2.97
2018-03-18T12:38:51.964Z,3.17
2018-03-18T12:41:19.624Z,2.70
2018-03-18T12:43:47.231Z,2.90
2018-03-18T12:46:16.008Z,3.23
2018-03-18T12:48:44.009Z,2.93
2018-03-18T12:51:12.392Z,2.73
2018-03-18T12:53:40.394Z,2.90
2018-03-18T12:56:08.447Z,3.20
2018-03-18T12:58:37.556Z,2.60
2018-03-18T13:01:05.159Z,2.83
2018-03-18T13:03:32.802Z,2.40
2018-03-18T13:06:00.412Z,2.57
2018-03-18T13:08:28.018Z,2.37
2018-03-18T13:10:55.643Z,2.73
2018-03-18T13:13:24.069Z,2.67
2018-03-18T13:15:51.693Z,2.43
2018-03-18T13:18:19.309Z,2.93
2018-03-18T13:20:46.962Z,2.93
2018-03-18T13:23:14.559Z,2.60
2018-03-18T13:25:42.935Z,2.97
2018-03-18T13:28:11.340Z,2.90
2018-03-18T13:30:38.955Z,2.87
2018-03-18T13:33:06.574Z,2.77
2018-03-18T13:35:34.194Z,2.40
2018-03-18T13:38:02.571Z,2.70
2018-03-18T13:40:31.687Z,2.47
2018-03-18T13:42:59.760Z,2.60
2018-03-18T13:45:27.470Z,2.60
2018-03-18T13:47:55.080Z,2.40
2018-03-18T13:50:22.704Z,2.43
2018-03-18T13:52:50.343Z,2.80
2018-03-18T13:55:18.121Z,2.93
2018-03-18T13:57:45.778Z,2.80
2018-03-18T14:00:13.396Z,2.87
2018-03-18T14:02:41.048Z,2.70
2018-03-18T14:05:09.471Z,2.70
2018-03-18T14:07:37.237Z,2.60
2018-03-18T14:10:04.899Z,2.67
2018-03-18T14:12:32.543Z,3.00
2018-03-18T14:15:00.158Z,2.47
2018-03-18T14:17:27.791Z,2.10
2018-03-18T14:19:55.386Z,2.53
2018-03-18T14:22:23.823Z,2.63
2018-03-18T14:24:51.431Z,2.40
2018-03-18T14:27:20.542Z,2.70
2018-03-18T14:29:48.214Z,2.37
2018-03-18T14:32:15.815Z,2.93
2018-03-18T14:34:44.229Z,2.57
2018-03-18T14:37:12.594Z,2.50
2018-03-18T14:39:40.214Z,2.63
2018-03-18T14:42:07.814Z,2.60
2018-03-18T14:44:36.797Z,2.63
2018-03-18T14:47:04.412Z,2.40
2018-03-18T14:49:32.816Z,2.30
2018-03-18T14:52:00.593Z,2.63
2018-03-18T14:54:28.657Z,2.70
2018-03-18T14:56:57.395Z,2.53
2018-03-18T14:59:25.436Z,2.57
2018-03-18T15:01:53.044Z,2.47
2018-03-18T15:04:20.708Z,2.53
2018-03-18T15:06:49.834Z,2.40
2018-03-18T15:09:17.818Z,2.30
2018-03-18T15:11:45.456Z,2.43
2018-03-18T15:14:14.443Z,2.43
2018-03-18T15:16:42.063Z,2.17
2018-03-18T15:19:10.474Z,2.43
2018-03-18T15:21:38.159Z,2.43
2018-03-18T15:24:06.429Z,2.47
2018-03-18T15:26:35.581Z,2.30
2018-03-18T15:29:03.982Z,2.53
2018-03-18T15:31:31.626Z,2.60
2018-03-18T15:33:59.902Z,2.40
2018-03-18T15:36:29.048Z,2.73
2018-03-18T15:38:57.419Z,2.13
2018-03-18T15:41:25.062Z,2.37
2018-03-18T15:43:54.726Z,2.20
2018-03-18T15:46:22.379Z,2.00
2018-03-18T15:48:51.516Z,2.27
2018-03-18T15:51:20.504Z,2.07
2018-03-18T15:53:48.093Z,2.20
2018-03-18T15:56:15.750Z,2.20
2018-03-18T15:58:43.734Z,2.33
2018-03-18T16:01:12.483Z,2.43
2018-03-18T16:03:41.545Z,2.23
2018-03-18T16:06:09.144Z,2.33
2018-03-18T16:08:36.815Z,1.90
2018-03-18T16:11:04.410Z,2.23
2018-03-18T16:13:32.452Z,2.07
2018-03-18T16:16:00.540Z,2.17
2018-03-18T16:18:28.208Z,2.07
2018-03-18T16:20:55.864Z,2.27
2018-03-18T16:23:23.466Z,1.87
2018-03-18T16:25:53.196Z,2.20
2018-03-18T16:28:21.223Z,2.20
2018-03-18T16:30:56.548Z,2.23
2018-03-18T16:33:24.157Z,2.23
2018-03-18T16:35:53.307Z,2.30
2018-03-18T16:38:20.924Z,2.07
2018-03-18T16:40:49.338Z,2.03
2018-03-18T16:43:18.323Z,2.30
2018-03-18T16:45:47.046Z,2.30
2018-03-18T16:48:14.680Z,2.50
2018-03-18T16:50:42.562Z,2.00
2018-03-18T16:53:11.565Z,2.73
2018-03-18T16:55:39.178Z,3.20
2018-03-18T16:58:06.844Z,2.80
2018-03-18T17:00:34.473Z,2.60
2018-03-18T17:03:03.610Z,3.40
2018-03-18T17:05:31.265Z,3.70
2018-03-18T17:07:58.954Z,3.33
2018-03-18T17:10:26.995Z,3.07
2018-03-18T17:12:55.944Z,3.83
2018-03-18T17:15:23.608Z,3.67
2018-03-18T17:17:52.476Z,4.20
2018-03-18T17:20:21.274Z,4.00
2018-03-18T17:22:50.082Z,3.30
2018-03-18T17:25:18.464Z,4.10
2018-03-18T17:27:47.219Z,3.63
2018-03-18T17:30:16.215Z,3.03
2018-03-18T17:32:45.325Z,4.33
2018-03-18T17:35:12.959Z,4.37
2018-03-18T17:37:41.685Z,3.97
2018-03-18T17:40:09.711Z,4.37
2018-03-18T17:42:37.308Z,4.83
2018-03-18T17:45:16.977Z,4.27
2018-03-18T17:47:57.348Z,3.80
2018-03-18T17:50:32.330Z,4.93
2018-03-18T17:53:11.888Z,4.13
2018-03-18T17:55:39.519Z,4.53
2018-03-18T17:58:07.121Z,4.17
2018-03-18T18:00:36.151Z,4.50
2018-03-18T18:03:05.164Z,4.80
2018-03-18T18:05:32.844Z,4.03
2018-03-18T18:08:00.465Z,4.33
2018-03-18T18:10:28.112Z,4.13
2018-03-18T18:12:57.256Z,4.00
2018-03-18T18:15:24.885Z,4.43
2018-03-18T18:17:52.892Z,3.90
2018-03-18T18:20:20.549Z,4.90
2018-03-18T18:22:48.183Z,4.10
2018-03-18T18:25:15.888Z,4.07
2018-03-18T18:27:43.513Z,3.90
2018-03-18T18:30:11.890Z,4.30
2018-03-18T18:32:39.551Z,4.37
2018-03-18T18:35:07.911Z,4.60
2018-03-18T18:37:35.913Z,3.47
2018-03-18T18:40:03.572Z,3.57
2018-03-18T18:42:32.103Z,3.13
2018-03-18T18:45:00.568Z,3.80
2018-03-18T18:47:29.239Z,4.07
2018-03-18T18:49:56.871Z,3.50
2018-03-18T18:52:24.493Z,3.57
2018-03-18T18:54:53.221Z,3.60
2018-03-18T18:57:20.851Z,3.43
2018-03-18T18:59:49.246Z,3.33
2018-03-18T19:02:17.648Z,3.33
2018-03-18T19:04:45.293Z,4.17
2018-03-18T19:07:12.978Z,3.73
2018-03-18T19:09:42.008Z,4.33
2018-03-18T19:12:11.134Z,3.93
2018-03-18T19:14:38.753Z,3.73
2018-03-18T19:17:06.374Z,4.00
2018-03-18T19:19:35.323Z,3.70
2018-03-18T19:22:03.736Z,3.97
2018-03-18T19:24:31.354Z,3.93
2018-03-18T19:26:59.022Z,3.87
2018-03-18T19:29:26.613Z,3.83
2018-03-18T19:31:54.214Z,3.30
2018-03-18T19:34:22.791Z,3.63
2018-03-18T19:36:50.785Z,4.27
2018-03-18T19:39:18.483Z,3.87
2018-03-18T19:41:46.110Z,3.77
2018-03-18T19:44:13.715Z,3.40
2018-03-18T19:46:41.346Z,4.17
2018-03-18T19:49:10.307Z,4.10
2018-03-18T19:51:38.074Z,4.03
2018-03-18T19:54:05.679Z,3.40
2018-03-18T19:56:34.098Z,3.30
2018-03-18T19:59:02.507Z,3.87
2018-03-18T20:01:30.167Z,3.87
2018-03-18T20:03:57.775Z,3.70
2018-03-18T20:06:26.036Z,4.10
2018-03-18T20:08:55.180Z,3.60
2018-03-18T20:11:22.838Z,4.23
2018-03-18T20:13:50.476Z,3.73
2018-03-18T20:16:18.601Z,3.70
2018-03-18T20:18:46.550Z,2.63
2018-03-18T20:21:14.142Z,3.60
2018-03-18T20:23:42.552Z,3.43
2018-03-18T20:26:10.185Z,3.97
2018-03-18T20:28:39.461Z,2.93
2018-03-18T20:31:07.772Z,3.27
2018-03-18T20:33:36.186Z,3.30
2018-03-18T20:36:03.965Z,3.50
2018-03-18T20:38:31.679Z,3.93
2018-03-18T20:40:59.308Z,3.23
2018-03-18T20:43:26.905Z,3.87
2018-03-18T20:45:55.289Z,3.30
2018-03-18T20:48:22.990Z,3.03
2018-03-18T20:50:52.600Z,3.13
2018-03-18T20:53:21.612Z,3.33
2018-03-18T20:55:49.210Z,3.70
2018-03-18T20:58:17.618Z,3.30
2018-03-18T21:00:45.240Z,3.23
2018-03-18T21:03:13.670Z,3.17
2018-03-18T21:05:42.050Z,3.70
2018-03-18T21:08:09.684Z,3.60
2018-03-18T21:10:37.301Z,3.03
2018-03-18T21:13:04.934Z,3.20
2018-03-18T21:15:32.548Z,2.90
2018-03-18T21:18:00.948Z,3.43
2018-03-18T21:20:28.561Z,2.90
2018-03-18T21:22:56.549Z,2.67
2018-03-18T21:25:25.529Z,3.33
2018-03-18T21:27:53.218Z,2.70
2018-03-18T21:30:22.391Z,2.77
2018-03-18T21:32:50.031Z,3.10
2018-03-18T21:35:18.034Z,3.33
2018-03-18T21:37:47.044Z,3.27
2018-03-18T21:40:14.675Z,3.27
2018-03-18T21:42:42.337Z,3.43
2018-03-18T21:45:09.953Z,3.10
2018-03-18T21:47:37.571Z,2.70
2018-03-18T21:50:06.649Z,2.90
2018-03-18T21:52:34.349Z,2.83
2018-03-18T21:55:02.046Z,3.00
2018-03-18T21:57:29.656Z,2.80
2018-03-18T21:59:58.515Z,3.00
2018-03-18T22:02:27.508Z,3.53
2018-03-18T22:04:55.184Z,2.87
2018-03-18T22:07:22.778Z,2.73
2018-03-18T22:09:50.374Z,3.07
2018-03-18T22:12:19.345Z,2.93
2018-03-18T22:14:47.849Z,2.27
2018-03-18T22:17:15.611Z,2.90
2018-03-18T22:19:44.587Z,2.70
2018-03-18T22:22:12.493Z,2.70
2018-03-18T22:24:40.138Z,2.90
2018-03-18T22:27:07.737Z,3.17
2018-03-18T22:29:36.133Z,2.83
2018-03-18T22:32:04.553Z,2.80
2018-03-18T22:34:32.789Z,2.40
2018-03-18T22:37:01.889Z,3.00
2018-03-18T22:39:29.927Z,2.80
2018-03-18T22:41:58.317Z,2.60
2018-03-18T22:44:26.737Z,2.23
2018-03-18T22:46:54.360Z,2.60
2018-03-18T22:49:22.712Z,2.53
2018-03-18T22:51:50.371Z,2.70
2018-03-18T22:54:17.957Z,2.27
2018-03-18T22:56:46.318Z,2.60
2018-03-18T22:59:14.789Z,2.70
2018-03-18T23:01:42.419Z,2.87
2018-03-18T23:04:10.046Z,2.37
2018-03-18T23:06:38.406Z,2.83
2018-03-18T23:09:06.073Z,2.30
2018-03-18T23:11:34.442Z,2.27
2018-03-18T23:14:02.470Z,2.73
2018-03-18T23:16:30.094Z,2.50
2018-03-18T23:18:58.936Z,2.87
2018-03-18T23:21:26.601Z,2.10
2018-03-18T23:23:55.545Z,2.70
2018-03-18T23:26:23.964Z,2.20
2018-03-18T23:28:52.321Z,2.47
2018-03-18T23:31:19.938Z,2.57
2018-03-18T23:33:47.611Z,2.40
2018-03-18T23:36:15.202Z,2.47
2018-03-18T23:38:42.789Z,2.40
2018-03-18T23:41:11.172Z,2.60
2018-03-18T23:43:38.801Z,2.83
2018-03-18T23:46:06.496Z,2.80
2018-03-18T23:48:34.081Z,2.27
2018-03-18T23:51:01.727Z,2.53
2018-03-18T23:53:29.401Z,2.37
2018-03-18T23:55:57.018Z,2.40
2018-03-18T23:58:25.232Z,2.47
